Airport Name : Brac

Other Name : Brac

ICAO : LDSB

IATA : BWK

FAA :

Latitude : 43.285719

Longitude : 16.679719

Country : Croatia

Local Date and Time : 10/23/2018 8:55:00 AM

 

TAF (Terminal Aerodrome Forecast)

TAF LDSB 230632Z 2307/2406 03020KT CAVOK TX19/2312Z TN11/2405Z BECMG 2309/2311 03010KT BECMG 2314/2316 VRB02KT BECMG 2322/2400 33015KT

 

METAR (METeorological Aerodrome Report)

LDSB 230600Z 03019KT CAVOK 12/04 Q1019